sensor_id;sensor_type;location;lat;lon;timestamp;pressure;altitude;pressure_sealevel;temperature;humidity
19259;BME280;9763;48.780;9.212;2023-05-11T00:00:45;98188.66;;;17.00;71.08
19259;BME280;9763;48.780;9.212;2023-05-11T00:04:13;98190.47;;;17.00;71.18
19259;BME280;9763;48.780;9.212;2023-05-11T00:07:37;98192.28;;;16.99;70.81
19259;BME280;9763;48.780;9.212;2023-05-11T00:11:06;98181.72;;;16.99;70.83
19259;BME280;9763;48.780;9.212;2023-05-11T00:14:30;98186.31;;;16.97;71.03
19259;BME280;9763;48.780;9.212;2023-05-11T00:17:54;98186.47;;;16.96;70.43
19259;BME280;9763;48.780;9.212;2023-05-11T00:21:19;98179.16;;;16.89;71.09
19259;BME280;9763;48.780;9.212;2023-05-11T00:24:44;98184.66;;;16.96;70.71
19259;BME280;9763;48.780;9.212;2023-05-11T00:28:08;98187.28;;;16.96;70.58
19259;BME280;9763;48.780;9.212;2023-05-11T00:31:32;98179.38;;;16.96;70.47
19259;BME280;9763;48.780;9.212;2023-05-11T00:34:55;98173.00;;;16.99;70.51
19259;BME280;9763;48.780;9.212;2023-05-11T00:38:20;98167.56;;;17.00;71.03
19259;BME280;9763;48.780;9.212;2023-05-11T00:41:44;98174.34;;;17.03;71.18
19259;BME280;9763;48.780;9.212;2023-05-11T00:45:08;98175.88;;;17.05;71.24
19259;BME280;9763;48.780;9.212;2023-05-11T00:48:33;98181.00;;;17.07;70.81
19259;BME280;9763;48.780;9.212;2023-05-11T00:51:57;98176.41;;;17.09;70.68
19259;BME280;9763;48.780;9.212;2023-05-11T00:55:26;98177.94;;;17.11;71.18
19259;BME280;9763;48.780;9.212;2023-05-11T00:58:51;98177.94;;;17.11;71.04
19259;BME280;9763;48.780;9.212;2023-05-11T01:02:15;98175.16;;;17.13;71.31
19259;BME280;9763;48.780;9.212;2023-05-11T01:05:44;98169.03;;;17.12;70.42
19259;BME280;9763;48.780;9.212;2023-05-11T01:09:21;98172.50;;;17.13;71.05
19259;BME280;9763;48.780;9.212;2023-05-11T01:13:00;98168.78;;;17.06;70.42
19259;BME280;9763;48.780;9.212;2023-05-11T01:16:27;98185.00;;;17.11;70.47
19259;BME280;9763;48.780;9.212;2023-05-11T01:20:01;98179.03;;;17.09;70.97
19259;BME280;9763;48.780;9.212;2023-05-11T01:24:03;98176.56;;;17.07;70.71
19259;BME280;9763;48.780;9.212;2023-05-11T01:27:53;98177.66;;;17.05;70.41
19259;BME280;9763;48.780;9.212;2023-05-11T01:31:21;98166.59;;;17.01;70.55
19259;BME280;9763;48.780;9.212;2023-05-11T01:34:47;98164.38;;;16.97;71.14
19259;BME280;9763;48.780;9.212;2023-05-11T01:38:18;98166.34;;;16.95;70.90
19259;BME280;9763;48.780;9.212;2023-05-11T01:41:52;98174.53;;;16.91;70.69
19259;BME280;9763;48.780;9.212;2023-05-11T01:45:19;98181.78;;;16.89;71.17
19259;BME280;9763;48.780;9.212;2023-05-11T01:48:50;98170.69;;;16.86;71.20
19259;BME280;9763;48.780;9.212;2023-05-11T01:52:15;98165.56;;;16.84;71.29
19259;BME280;9763;48.780;9.212;2023-05-11T01:55:41;98166.25;;;16.86;70.81
19259;BME280;9763;48.780;9.212;2023-05-11T01:59:06;98174.00;;;16.88;70.79
19259;BME280;9763;48.780;9.212;2023-05-11T02:02:32;98170.69;;;16.86;71.12
19259;BME280;9763;48.780;9.212;2023-05-11T02:06:01;98134.97;;;16.64;71.10
19259;BME280;9763;48.780;9.212;2023-05-11T02:09:26;98172.06;;;16.80;70.98
19259;BME280;9763;48.780;9.212;2023-05-11T02:12:52;98170.41;;;16.79;70.76
19259;BME280;9763;48.780;9.212;2023-05-11T02:16:19;98180.97;;;16.79;70.75
19259;BME280;9763;48.780;9.212;2023-05-11T02:19:44;98185.25;;;16.80;71.17
19259;BME280;9763;48.780;9.212;2023-05-11T02:23:11;98179.00;;;16.81;70.73
19259;BME280;9763;48.780;9.212;2023-05-11T02:26:35;98180.69;;;16.82;70.84
19259;BME280;9763;48.780;9.212;2023-05-11T02:30:00;98174.44;;;16.83;70.69
19259;BME280;9763;48.780;9.212;2023-05-11T02:33:29;98171.94;;;16.82;71.32
19259;BME280;9763;48.780;9.212;2023-05-11T02:36:58;98177.06;;;16.83;70.70
19259;BME280;9763;48.780;9.212;2023-05-11T02:40:32;98150.06;;;16.72;70.93
19259;BME280;9763;48.780;9.212;2023-05-11T02:44:02;98178.50;;;16.78;71.12
19259;BME280;9763;48.780;9.212;2023-05-11T02:47:33;98164.22;;;16.71;70.88
19259;BME280;9763;48.780;9.212;2023-05-11T02:51:00;98157.72;;;16.65;70.78
19259;BME280;9763;48.780;9.212;2023-05-11T02:54:31;98171.56;;;16.77;71.45
19259;BME280;9763;48.780;9.212;2023-05-11T02:57:57;98168.59;;;16.80;70.78
19259;BME280;9763;48.780;9.212;2023-05-11T03:01:21;98167.34;;;16.84;71.42
19259;BME280;9763;48.780;9.212;2023-05-11T03:04:45;98166.53;;;16.83;71.45
19259;BME280;9763;48.780;9.212;2023-05-11T03:08:09;98148.66;;;16.77;70.81
19259;BME280;9763;48.780;9.212;2023-05-11T03:11:33;98163.59;;;16.86;71.10
19259;BME280;9763;48.780;9.212;2023-05-11T03:14:59;98161.94;;;16.85;71.24
19259;BME280;9763;48.780;9.212;2023-05-11T03:18:25;98155.97;;;16.83;70.47
19259;BME280;9763;48.780;9.212;2023-05-11T03:21:51;98158.75;;;16.82;70.53
19259;BME280;9763;48.780;9.212;2023-05-11T03:25:16;98147.28;;;16.73;71.09
19259;BME280;9763;48.780;9.212;2023-05-11T03:28:43;98154.22;;;16.74;70.36
19259;BME280;9763;48.780;9.212;2023-05-11T03:32:10;98154.22;;;16.74;70.58
19259;BME280;9763;48.780;9.212;2023-05-11T03:35:36;98152.00;;;16.70;70.86
19259;BME280;9763;48.780;9.212;2023-05-11T03:39:02;98152.28;;;16.67;71.02
19259;BME280;9763;48.780;9.212;2023-05-11T03:42:29;98153.56;;;16.63;70.70
19259;BME280;9763;48.780;9.212;2023-05-11T03:45:56;98148.41;;;16.61;70.36
19259;BME280;9763;48.780;9.212;2023-05-11T03:49:24;98151.31;;;16.58;70.67
19259;BME280;9763;48.780;9.212;2023-05-11T03:52:49;98151.59;;;16.55;70.62
19259;BME280;9763;48.780;9.212;2023-05-11T03:56:13;98145.81;;;16.51;71.11
19259;BME280;9763;48.780;9.212;2023-05-11T03:59:38;98142.63;;;16.48;70.84
19259;BME280;9763;48.780;9.212;2023-05-11T04:03:04;98141.94;;;16.46;71.40
19259;BME280;9763;48.780;9.212;2023-05-11T04:06:30;98138.47;;;16.45;71.36
19259;BME280;9763;48.780;9.212;2023-05-11T04:10:02;98141.78;;;16.47;70.41
19259;BME280;9763;48.780;9.212;2023-05-11T04:13:26;98141.53;;;16.41;70.39
19259;BME280;9763;48.780;9.212;2023-05-11T04:16:50;98139.06;;;16.39;70.52
19259;BME280;9763;48.780;9.212;2023-05-11T04:20:14;98136.84;;;16.35;71.11
19259;BME280;9763;48.780;9.212;2023-05-11T04:23:40;98142.50;;;16.40;71.34
19259;BME280;9763;48.780;9.212;2023-05-11T04:27:04;98152.09;;;16.41;70.95
19259;BME280;9763;48.780;9.212;2023-05-11T04:30:27;98149.13;;;16.44;71.06
19259;BME280;9763;48.780;9.212;2023-05-11T04:33:51;98147.34;;;16.44;71.10
19259;BME280;9763;48.780;9.212;2023-05-11T04:37:15;98150.81;;;16.45;70.50
19259;BME280;9763;48.780;9.212;2023-05-11T04:40:41;98143.88;;;16.44;70.50
19259;BME280;9763;48.780;9.212;2023-05-11T04:44:04;98152.47;;;16.46;70.58
19259;BME280;9763;48.780;9.212;2023-05-11T04:47:28;98151.50;;;16.47;70.61
19259;BME280;9763;48.780;9.212;2023-05-11T04:50:54;98147.88;;;16.48;70.63
19259;BME280;9763;48.780;9.212;2023-05-11T04:54:22;98150.53;;;16.48;70.52
19259;BME280;9763;48.780;9.212;2023-05-11T04:57:47;98156.63;;;16.48;70.47
19259;BME280;9763;48.780;9.212;2023-05-11T05:01:11;98150.94;;;16.53;70.75
19259;BME280;9763;48.780;9.212;2023-05-11T05:04:34;98152.59;;;16.54;71.17
19259;BME280;9763;48.780;9.212;2023-05-11T05:07:58;98156.44;;;16.60;70.52
19259;BME280;9763;48.780;9.212;2023-05-11T05:11:22;98152.16;;;16.58;70.58
19259;BME280;9763;48.780;9.212;2023-05-11T05:14:47;98158.84;;;16.63;70.38
19259;BME280;9763;48.780;9.212;2023-05-11T05:18:10;98157.72;;;16.65;70.35
19259;BME280;9763;48.780;9.212;2023-05-11T05:21:35;98156.75;;;16.66;70.40
19259;BME280;9763;48.780;9.212;2023-05-11T05:25:00;98151.63;;;16.65;70.49
19259;BME280;9763;48.780;9.212;2023-05-11T05:28:24;98165.31;;;16.78;70.65
19259;BME280;9763;48.780;9.212;2023-05-11T05:31:49;98166.53;;;16.83;70.86
19259;BME280;9763;48.780;9.212;2023-05-11T05:35:14;98162.50;;;16.89;70.47
19259;BME280;9763;48.780;9.212;2023-05-11T05:38:38;98164.81;;;16.92;70.86
19259;BME280;9763;48.780;9.212;2023-05-11T05:42:01;98151.78;;;16.90;70.45
19259;BME280;9763;48.780;9.212;2023-05-11T05:45:26;98163.97;;;17.01;70.56
19259;BME280;9763;48.780;9.212;2023-05-11T05:48:51;98173.91;;;17.07;70.17
19259;BME280;9763;48.780;9.212;2023-05-11T05:52:15;98168.59;;;17.17;70.75
19259;BME280;9763;48.780;9.212;2023-05-11T05:55:41;98165.75;;;17.28;70.56
19259;BME280;9763;48.780;9.212;2023-05-11T05:59:05;98168.84;;;17.41;70.97
19259;BME280;9763;48.780;9.212;2023-05-11T06:02:30;98166.84;;;17.53;70.27
19259;BME280;9763;48.780;9.212;2023-05-11T06:05:55;98172.06;;;17.62;70.88
19259;BME280;9763;48.780;9.212;2023-05-11T06:09:19;98168.56;;;17.72;70.07
19259;BME280;9763;48.780;9.212;2023-05-11T06:12:42;98177.53;;;17.79;70.16
19259;BME280;9763;48.780;9.212;2023-05-11T06:16:06;98177.09;;;17.83;70.48
19259;BME280;9763;48.780;9.212;2023-05-11T06:19:30;98175.13;;;17.85;70.34
19259;BME280;9763;48.780;9.212;2023-05-11T06:22:56;98176.09;;;17.84;69.47
19259;BME280;9763;48.780;9.212;2023-05-11T06:26:20;98170.13;;;17.82;70.36
19259;BME280;9763;48.780;9.212;2023-05-11T06:29:47;98184.38;;;17.89;70.30
19259;BME280;9763;48.780;9.212;2023-05-11T06:33:10;98180.47;;;17.93;70.01
19259;BME280;9763;48.780;9.212;2023-05-11T06:36:35;98170.75;;;17.94;69.74
19259;BME280;9763;48.780;9.212;2023-05-11T06:40:01;98176.31;;;17.91;69.45
19259;BME280;9763;48.780;9.212;2023-05-11T06:43:25;98178.59;;;17.86;69.68
19259;BME280;9763;48.780;9.212;2023-05-11T06:46:49;98173.13;;;17.87;69.26
19259;BME280;9763;48.780;9.212;2023-05-11T06:50:12;98172.69;;;17.92;69.46
19259;BME280;9763;48.780;9.212;2023-05-11T06:53:36;98167.41;;;17.92;69.89
19259;BME280;9763;48.780;9.212;2023-05-11T06:57:01;98165.00;;;17.98;69.99
19259;BME280;9763;48.780;9.212;2023-05-11T07:00:25;98174.94;;;18.05;69.89
19259;BME280;9763;48.780;9.212;2023-05-11T07:03:49;98172.94;;;17.98;69.64
19259;BME280;9763;48.780;9.212;2023-05-11T07:07:16;98180.03;;;17.80;69.67
19259;BME280;9763;48.780;9.212;2023-05-11T07:10:40;98176.56;;;17.52;70.97
19259;BME280;9763;48.780;9.212;2023-05-11T07:14:05;98183.84;;;17.41;71.07
19259;BME280;9763;48.780;9.212;2023-05-11T07:17:29;98193.34;;;17.34;72.18
19259;BME280;9763;48.780;9.212;2023-05-11T07:20:53;98189.06;;;17.33;72.65
19259;BME280;9763;48.780;9.212;2023-05-11T07:24:16;98193.28;;;17.25;73.09
19259;BME280;9763;48.780;9.212;2023-05-11T07:27:40;98193.56;;;17.22;73.21
19259;BME280;9763;48.780;9.212;2023-05-11T07:31:05;98189.81;;;17.15;73.58
19259;BME280;9763;48.780;9.212;2023-05-11T07:34:29;98196.91;;;17.15;74.78
19259;BME280;9763;48.780;9.212;2023-05-11T07:37:52;98204.53;;;17.18;75.07
19259;BME280;9763;48.780;9.212;2023-05-11T07:41:16;98198.16;;;17.20;75.64
19259;BME280;9763;48.780;9.212;2023-05-11T07:44:40;98187.50;;;17.12;76.45
19259;BME280;9763;48.780;9.212;2023-05-11T07:48:05;98202.03;;;17.16;76.27
19259;BME280;9763;48.780;9.212;2023-05-11T07:51:29;98200.09;;;17.18;76.88
19259;BME280;9763;48.780;9.212;2023-05-11T07:54:53;98206.59;;;17.24;77.17
19259;BME280;9763;48.780;9.212;2023-05-11T07:58:17;98202.16;;;17.24;77.76
19259;BME280;9763;48.780;9.212;2023-05-11T08:01:41;98197.56;;;17.26;78.41
19259;BME280;9763;48.780;9.212;2023-05-11T08:05:08;98203.06;;;17.33;78.02
19259;BME280;9763;48.780;9.212;2023-05-11T08:08:32;98200.16;;;17.36;78.39
19259;BME280;9763;48.780;9.212;2023-05-11T08:11:55;98190.38;;;17.46;79.15
19259;BME280;9763;48.780;9.212;2023-05-11T08:15:19;98196.13;;;17.59;79.21
19259;BME280;9763;48.780;9.212;2023-05-11T08:18:43;98193.72;;;17.66;78.60
19259;BME280;9763;48.780;9.212;2023-05-11T08:22:08;98198.44;;;17.72;79.15
19259;BME280;9763;48.780;9.212;2023-05-11T08:25:31;98200.16;;;17.81;79.00
19259;BME280;9763;48.780;9.212;2023-05-11T08:28:56;98191.81;;;17.86;78.90
19259;BME280;9763;48.780;9.212;2023-05-11T08:32:20;98198.13;;;17.93;79.54
19259;BME280;9763;48.780;9.212;2023-05-11T08:35:44;98200.19;;;17.99;79.63
19259;BME280;9763;48.780;9.212;2023-05-11T08:39:09;98198.19;;;18.01;79.81
19259;BME280;9763;48.780;9.212;2023-05-11T08:42:33;98200.69;;;18.03;79.71
19259;BME280;9763;48.780;9.212;2023-05-11T08:46:03;98201.66;;;18.02;79.54
19259;BME280;9763;48.780;9.212;2023-05-11T08:49:28;98189.13;;;18.04;79.72
19259;BME280;9763;48.780;9.212;2023-05-11T08:52:52;98192.66;;;18.12;80.26
19259;BME280;9763;48.780;9.212;2023-05-11T08:56:18;98191.63;;;18.23;79.78
19259;BME280;9763;48.780;9.212;2023-05-11T08:59:45;98198.16;;;18.36;79.73
19259;BME280;9763;48.780;9.212;2023-05-11T09:03:10;98197.16;;;18.38;79.84
19259;BME280;9763;48.780;9.212;2023-05-11T09:06:34;98196.34;;;18.37;79.74
19259;BME280;9763;48.780;9.212;2023-05-11T09:10:00;98198.09;;;18.46;79.84
19259;BME280;9763;48.780;9.212;2023-05-11T09:13:25;98200.63;;;18.56;79.20
19259;BME280;9763;48.780;9.212;2023-05-11T09:16:49;98199.72;;;18.65;78.57
19259;BME280;9763;48.780;9.212;2023-05-11T09:20:13;98194.69;;;18.80;77.61
19259;BME280;9763;48.780;9.212;2023-05-11T09:23:36;98190.97;;;18.98;76.89
19259;BME280;9763;48.780;9.212;2023-05-11T09:27:06;98190.84;;;19.08;76.26
19259;BME280;9763;48.780;9.212;2023-05-11T09:30:33;98196.22;;;19.24;76.00
19259;BME280;9763;48.780;9.212;2023-05-11T09:34:12;98189.13;;;19.33;74.77
19259;BME280;9763;48.780;9.212;2023-05-11T09:37:35;98195.16;;;19.43;75.23
19259;BME280;9763;48.780;9.212;2023-05-11T09:40:59;98195.19;;;19.51;74.69
19259;BME280;9763;48.780;9.212;2023-05-11T09:44:30;98170.97;;;19.46;73.82
19259;BME280;9763;48.780;9.212;2023-05-11T09:47:55;98192.41;;;19.61;74.11
19259;BME280;9763;48.780;9.212;2023-05-11T09:51:28;98188.75;;;19.62;74.05
19259;BME280;9763;48.780;9.212;2023-05-11T09:54:53;98189.13;;;19.67;73.57
19259;BME280;9763;48.780;9.212;2023-05-11T09:58:16;98185.63;;;19.66;73.14
19259;BME280;9763;48.780;9.212;2023-05-11T10:01:40;98194.22;;;19.60;72.26
19259;BME280;9763;48.780;9.212;2023-05-11T10:05:11;98185.13;;;19.55;72.16
19259;BME280;9763;48.780;9.212;2023-05-11T10:08:35;98185.59;;;19.58;72.18
19259;BME280;9763;48.780;9.212;2023-05-11T10:12:00;98189.59;;;19.62;72.29
19259;BME280;9763;48.780;9.212;2023-05-11T10:15:27;98188.13;;;19.68;72.78
19259;BME280;9763;48.780;9.212;2023-05-11T10:18:52;98191.59;;;19.76;72.52
19259;BME280;9763;48.780;9.212;2023-05-11T10:22:17;98189.78;;;19.85;72.65
19259;BME280;9763;48.780;9.212;2023-05-11T10:25:41;98188.81;;;19.94;71.87
19259;BME280;9763;48.780;9.212;2023-05-11T10:29:08;98185.69;;;19.91;70.70
19259;BME280;9763;48.780;9.212;2023-05-11T10:32:35;98180.50;;;19.73;71.06
19259;BME280;9763;48.780;9.212;2023-05-11T10:36:01;98182.63;;;19.61;70.91
19259;BME280;9763;48.780;9.212;2023-05-11T10:39:28;98179.06;;;19.44;70.54
19259;BME280;9763;48.780;9.212;2023-05-11T10:43:22;98189.66;;;19.36;71.41
19259;BME280;9763;48.780;9.212;2023-05-11T10:47:10;98160.69;;;19.35;71.60
19259;BME280;9763;48.780;9.212;2023-05-11T10:50:54;98175.53;;;19.62;71.90
19259;BME280;9763;48.780;9.212;2023-05-11T10:54:35;98172.91;;;19.78;71.21
19259;BME280;9763;48.780;9.212;2023-05-11T10:58:07;98177.22;;;19.95;71.12
19259;BME280;9763;48.780;9.212;2023-05-11T11:01:37;98166.13;;;20.08;71.49
19259;BME280;9763;48.780;9.212;2023-05-11T11:05:02;98167.97;;;20.16;71.04
19259;BME280;9763;48.780;9.212;2023-05-11T11:08:55;98164.31;;;20.08;71.54
19259;BME280;9763;48.780;9.212;2023-05-11T11:12:21;98163.66;;;19.98;71.16
19259;BME280;9763;48.780;9.212;2023-05-11T11:16:07;98167.59;;;19.94;70.74
19259;BME280;9763;48.780;9.212;2023-05-11T11:19:37;98132.00;;;19.81;71.09
19259;BME280;9763;48.780;9.212;2023-05-11T11:23:01;98165.13;;;20.17;71.24
19259;BME280;9763;48.780;9.212;2023-05-11T11:26:46;98173.75;;;20.43;70.16
19259;BME280;9763;48.780;9.212;2023-05-11T11:30:18;98170.25;;;20.59;70.12
19259;BME280;9763;48.780;9.212;2023-05-11T11:33:41;98169.41;;;20.75;70.72
19259;BME280;9763;48.780;9.212;2023-05-11T11:37:06;98163.22;;;20.91;70.41
19259;BME280;9763;48.780;9.212;2023-05-11T11:40:35;98165.00;;;21.06;69.46
19259;BME280;9763;48.780;9.212;2023-05-11T11:44:20;98166.78;;;21.22;69.21
19259;BME280;9763;48.780;9.212;2023-05-11T11:48:12;98158.38;;;21.41;69.32
19259;BME280;9763;48.780;9.212;2023-05-11T11:51:36;98160.41;;;21.62;69.59
19259;BME280;9763;48.780;9.212;2023-05-11T11:55:03;98163.13;;;21.85;68.96
19259;BME280;9763;48.780;9.212;2023-05-11T11:58:57;98154.16;;;22.09;68.04
19259;BME280;9763;48.780;9.212;2023-05-11T12:02:23;98158.31;;;22.26;67.52
19259;BME280;9763;48.780;9.212;2023-05-11T12:05:51;98160.88;;;22.19;67.30
19259;BME280;9763;48.780;9.212;2023-05-11T12:09:18;98142.91;;;22.21;67.42
19259;BME280;9763;48.780;9.212;2023-05-11T12:12:44;98147.72;;;22.41;67.29
19259;BME280;9763;48.780;9.212;2023-05-11T12:16:08;98146.97;;;22.32;67.41
19259;BME280;9763;48.780;9.212;2023-05-11T12:19:33;98149.28;;;22.12;68.03
19259;BME280;9763;48.780;9.212;2023-05-11T12:23:00;98145.22;;;22.02;67.48
19259;BME280;9763;48.780;9.212;2023-05-11T12:26:26;98151.06;;;21.97;67.96
19259;BME280;9763;48.780;9.212;2023-05-11T12:29:50;98146.41;;;21.99;67.75
19259;BME280;9763;48.780;9.212;2023-05-11T12:33:14;98138.59;;;21.98;67.75
19259;BME280;9763;48.780;9.212;2023-05-11T12:36:38;98120.38;;;21.86;67.21
19259;BME280;9763;48.780;9.212;2023-05-11T12:40:04;98142.38;;;22.03;67.25
19259;BME280;9763;48.780;9.212;2023-05-11T12:43:32;98139.97;;;22.16;67.51
19259;BME280;9763;48.780;9.212;2023-05-11T12:46:56;98136.03;;;22.27;67.14
19259;BME280;9763;48.780;9.212;2023-05-11T12:50:21;98132.28;;;22.36;66.78
19259;BME280;9763;48.780;9.212;2023-05-11T12:53:44;98131.00;;;22.47;67.07
19259;BME280;9763;48.780;9.212;2023-05-11T12:57:23;98132.41;;;22.43;66.40
19259;BME280;9763;48.780;9.212;2023-05-11T13:00:51;98120.47;;;22.39;66.18
19259;BME280;9763;48.780;9.212;2023-05-11T13:04:15;98119.38;;;22.33;66.82
19259;BME280;9763;48.780;9.212;2023-05-11T13:07:40;98119.16;;;22.35;66.41
19259;BME280;9763;48.780;9.212;2023-05-11T13:11:18;98112.00;;;22.35;66.09
19259;BME280;9763;48.780;9.212;2023-05-11T13:14:49;98108.00;;;22.39;66.03
19259;BME280;9763;48.780;9.212;2023-05-11T13:18:16;98089.47;;;22.31;66.45
19259;BME280;9763;48.780;9.212;2023-05-11T13:21:45;98092.38;;;22.36;65.51
19259;BME280;9763;48.780;9.212;2023-05-11T13:25:09;98098.84;;;22.42;65.92
19259;BME280;9763;48.780;9.212;2023-05-11T13:28:33;98092.38;;;22.36;65.99
19259;BME280;9763;48.780;9.212;2023-05-11T13:31:58;98091.22;;;22.39;65.38
19259;BME280;9763;48.780;9.212;2023-05-11T13:35:22;98094.41;;;22.49;65.39
19259;BME280;9763;48.780;9.212;2023-05-11T13:38:45;98090.22;;;22.54;65.30
19259;BME280;9763;48.780;9.212;2023-05-11T13:42:09;98087.19;;;22.57;65.70
19259;BME280;9763;48.780;9.212;2023-05-11T13:45:32;98092.59;;;22.64;65.80
19259;BME280;9763;48.780;9.212;2023-05-11T13:48:59;98081.66;;;22.74;64.92
19259;BME280;9763;48.780;9.212;2023-05-11T13:52:22;98082.69;;;22.73;65.42
19259;BME280;9763;48.780;9.212;2023-05-11T13:55:46;98088.50;;;22.76;65.31
19259;BME280;9763;48.780;9.212;2023-05-11T13:59:09;98068.03;;;22.77;64.94
19259;BME280;9763;48.780;9.212;2023-05-11T14:02:33;98082.22;;;22.84;64.65
19259;BME280;9763;48.780;9.212;2023-05-11T14:05:58;98082.69;;;22.87;64.17
19259;BME280;9763;48.780;9.212;2023-05-11T14:09:22;98062.69;;;22.91;64.37
19259;BME280;9763;48.780;9.212;2023-05-11T14:12:45;98059.03;;;22.92;64.30
19259;BME280;9763;48.780;9.212;2023-05-11T14:16:09;98065.53;;;22.90;64.70
19259;BME280;9763;48.780;9.212;2023-05-11T14:19:33;98056.09;;;22.87;64.41
19259;BME280;9763;48.780;9.212;2023-05-11T14:22:58;98044.38;;;22.82;64.00
19259;BME280;9763;48.780;9.212;2023-05-11T14:26:22;98065.66;;;22.82;63.74
19259;BME280;9763;48.780;9.212;2023-05-11T14:29:45;98061.94;;;22.83;64.09
19259;BME280;9763;48.780;9.212;2023-05-11T14:33:09;98065.44;;;22.83;62.92
19259;BME280;9763;48.780;9.212;2023-05-11T14:36:33;98050.22;;;22.62;63.45
19259;BME280;9763;48.780;9.212;2023-05-11T14:39:58;98052.03;;;22.62;62.86
19259;BME280;9763;48.780;9.212;2023-05-11T14:43:22;98053.22;;;22.59;63.29
19259;BME280;9763;48.780;9.212;2023-05-11T14:46:47;98044.00;;;22.55;63.72
19259;BME280;9763;48.780;9.212;2023-05-11T14:50:11;98036.06;;;22.62;63.58
19259;BME280;9763;48.780;9.212;2023-05-11T14:53:34;98037.66;;;22.56;63.18
19259;BME280;9763;48.780;9.212;2023-05-11T14:56:59;98038.47;;;22.42;62.59
19259;BME280;9763;48.780;9.212;2023-05-11T15:00:23;98036.84;;;22.41;62.96
19259;BME280;9763;48.780;9.212;2023-05-11T15:03:46;98038.47;;;22.42;63.37
19259;BME280;9763;48.780;9.212;2023-05-11T15:07:10;98034.00;;;22.43;62.89
19259;BME280;9763;48.780;9.212;2023-05-11T15:10:34;98030.56;;;22.49;63.12
19259;BME280;9763;48.780;9.212;2023-05-11T15:14:02;98028.31;;;22.46;62.76
19259;BME280;9763;48.780;9.212;2023-05-11T15:17:25;98039.97;;;22.45;63.18
19259;BME280;9763;48.780;9.212;2023-05-11T15:20:49;98040.50;;;22.40;63.61
19259;BME280;9763;48.780;9.212;2023-05-11T15:24:13;98028.13;;;22.33;63.60
19259;BME280;9763;48.780;9.212;2023-05-11T15:27:36;98039.13;;;22.30;62.95
19259;BME280;9763;48.780;9.212;2023-05-11T15:31:01;98036.34;;;22.23;63.02
19259;BME280;9763;48.780;9.212;2023-05-11T15:34:25;98031.94;;;22.15;62.66
19259;BME280;9763;48.780;9.212;2023-05-11T15:37:49;98037.19;;;22.09;63.21
19259;BME280;9763;48.780;9.212;2023-05-11T15:41:13;98023.78;;;22.02;63.49
19259;BME280;9763;48.780;9.212;2023-05-11T15:44:37;98034.81;;;21.91;63.63
19259;BME280;9763;48.780;9.212;2023-05-11T15:48:05;98039.41;;;21.82;62.98
19259;BME280;9763;48.780;9.212;2023-05-11T15:51:29;98038.44;;;21.75;63.20
19259;BME280;9763;48.780;9.212;2023-05-11T15:54:53;98041.66;;;21.71;63.66
19259;BME280;9763;48.780;9.212;2023-05-11T15:58:17;98035.34;;;21.72;63.77
19259;BME280;9763;48.780;9.212;2023-05-11T16:01:41;98030.06;;;21.64;63.14
19259;BME280;9763;48.780;9.212;2023-05-11T16:05:07;98046.13;;;21.70;63.68
19259;BME280;9763;48.780;9.212;2023-05-11T16:08:31;98049.16;;;21.67;62.94
19259;BME280;9763;48.780;9.212;2023-05-11T16:11:54;98041.53;;;21.64;63.29
19259;BME280;9763;48.780;9.212;2023-05-11T16:15:18;98040.44;;;21.59;63.24
19259;BME280;9763;48.780;9.212;2023-05-11T16:18:42;98043.13;;;21.50;63.34
19259;BME280;9763;48.780;9.212;2023-05-11T16:22:09;98038.72;;;21.43;63.48
19259;BME280;9763;48.780;9.212;2023-05-11T16:25:32;98037.94;;;21.34;63.55
19259;BME280;9763;48.780;9.212;2023-05-11T16:28:56;98040.84;;;21.25;63.55
19259;BME280;9763;48.780;9.212;2023-05-11T16:32:20;98035.59;;;21.08;63.07
19259;BME280;9763;48.780;9.212;2023-05-11T16:35:43;98034.34;;;20.96;62.83
19259;BME280;9763;48.780;9.212;2023-05-11T16:39:09;98040.69;;;20.87;63.12
19259;BME280;9763;48.780;9.212;2023-05-11T16:42:33;98034.41;;;20.80;63.41
19259;BME280;9763;48.780;9.212;2023-05-11T16:45:56;98030.66;;;20.74;63.01
19259;BME280;9763;48.780;9.212;2023-05-11T16:49:20;98036.78;;;20.67;63.32
19259;BME280;9763;48.780;9.212;2023-05-11T16:52:44;98048.28;;;20.59;63.63
19259;BME280;9763;48.780;9.212;2023-05-11T16:56:09;98045.00;;;20.49;63.53
19259;BME280;9763;48.780;9.212;2023-05-11T16:59:33;98046.88;;;20.40;63.19
19259;BME280;9763;48.780;9.212;2023-05-11T17:02:57;98052.97;;;20.33;63.39
19259;BME280;9763;48.780;9.212;2023-05-11T17:06:21;98061.59;;;20.27;63.81
19259;BME280;9763;48.780;9.212;2023-05-11T17:09:45;98056.97;;;20.21;63.60
19259;BME280;9763;48.780;9.212;2023-05-11T17:13:14;98047.22;;;20.13;63.60
19259;BME280;9763;48.780;9.212;2023-05-11T17:16:37;98047.06;;;20.06;63.92
19259;BME280;9763;48.780;9.212;2023-05-11T17:20:01;98046.09;;;19.99;63.44
19259;BME280;9763;48.780;9.212;2023-05-11T17:23:27;98040.97;;;19.90;63.69
19259;BME280;9763;48.780;9.212;2023-05-11T17:26:51;98042.97;;;19.80;64.08
19259;BME280;9763;48.780;9.212;2023-05-11T17:30:16;98048.25;;;19.71;64.02
19259;BME280;9763;48.780;9.212;2023-05-11T17:33:41;98050.06;;;19.63;63.73
19259;BME280;9763;48.780;9.212;2023-05-11T17:37:05;98049.41;;;19.53;64.26
19259;BME280;9763;48.780;9.212;2023-05-11T17:40:38;98052.00;;;19.44;63.94
19259;BME280;9763;48.780;9.212;2023-05-11T17:44:03;98032.34;;;19.31;64.04
19259;BME280;9763;48.780;9.212;2023-05-11T17:47:28;98044.59;;;19.32;64.56
19259;BME280;9763;48.780;9.212;2023-05-11T17:50:52;98049.69;;;19.25;64.64
19259;BME280;9763;48.780;9.212;2023-05-11T17:54:16;98047.88;;;19.18;64.43
19259;BME280;9763;48.780;9.212;2023-05-11T17:57:40;98051.28;;;19.10;64.98
19259;BME280;9763;48.780;9.212;2023-05-11T18:01:06;98053.63;;;19.05;64.91
19259;BME280;9763;48.780;9.212;2023-05-11T18:04:32;98048.13;;;18.98;65.07
19259;BME280;9763;48.780;9.212;2023-05-11T18:07:55;98047.44;;;18.88;65.21
19259;BME280;9763;48.780;9.212;2023-05-11T18:11:19;98051.88;;;18.80;65.06
19259;BME280;9763;48.780;9.212;2023-05-11T18:14:43;98054.00;;;18.68;64.78
19259;BME280;9763;48.780;9.212;2023-05-11T18:18:07;98068.81;;;18.61;64.78
19259;BME280;9763;48.780;9.212;2023-05-11T18:21:32;98058.03;;;18.54;64.75
19259;BME280;9763;48.780;9.212;2023-05-11T18:24:56;98065.97;;;18.54;65.37